Record high temperature 42.2°C Record low temperature -14.6°C Record high gust 76.2 km/h Record high average 96.8 km/h Record daily rain 63.7 mm Record low windchill -17.5°C Record high barometer 1046.0 hPa Record low barometer 960.0 hPa
Daily high pressure 1006.0 hPa Daily low pressure 1002.0 hPa Daily low windchill 9.2°C Daily high heat index 31.1°C Daily high gust speed 11.1 kmh SSE Daily high average speed 9.1 kmh SSE

This page is updated from recent data collected by a WMR200 weather station Use the Reload or Refresh facility on your browser to retrieve the latest data.

Status report of weather station: Bienvenue sur la Station Météo de Godarville



Weather report/warning/Metars

Alexandroupoli Airport , Greece (LGAL) 40-51N 025-55E 3M
Sep 25, 2021 - 10:50 AM EDT / 2021.09.25 1450 UTC
Wind: from the WSW (240 degrees) at 8 MPH (7 KT):0
Visibility: greater than 7 mile(s):0
Temperature: 75 F (24 C)
Dew Point: 60 F (16 C)
Relative Humidity: 60%
Pressure (altimeter): 30.09 in. Hg (1019 hPa)
ob: LGAL 251450Z 24007KT CAVOK 24/16 Q1019
cycle: 15

Charleroi / Gosselies, Belgium (EBCI) 50-28N 004-27E 192M
Sep 25, 2021 - 10:50 AM EDT / 2021.09.25 1450 UTC
Wind: Variable at 3 MPH (3 KT):0
Visibility: greater than 7 mile(s):0
Temperature: 71 F (22 C)
Dew Point: 48 F (9 C)
Relative Humidity: 43%
Pressure (altimeter): 29.97 in. Hg (1015 hPa)
ob: EBCI 251450Z VRB03KT CAVOK 22/09 Q1015 NOSIG
cycle: 15

Bruxelles National, Belgium (EBBR) 50-54N 004-32E 58M
Sep 25, 2021 - 10:50 AM EDT / 2021.09.25 1450 UTC
Wind: from the SE (140 degrees) at 6 MPH (5 KT) (direction variable):0
Visibility: greater than 7 mile(s):0
Temperature: 71 F (22 C)
Dew Point: 53 F (12 C)
Relative Humidity: 53%
Pressure (altimeter): 29.97 in. Hg (1015 hPa)
ob: EBBR 251450Z 14005KT 110V170 CAVOK 22/12 Q1015 NOSIG
cycle: 15

Koksijde, Belgium (EBFN) 51-05N 002-39E 9M
Sep 25, 2021 - 10:55 AM EDT / 2021.09.25 1455 UTC
Wind: from the SSE (150 degrees) at 6 MPH (5 KT):0
Visibility: greater than 7 mile(s):0
Temperature: 73 F (23 C)
Dew Point: 55 F (13 C)
Relative Humidity: 53%
Pressure (altimeter): 29.91 in. Hg (1013 hPa)
ob: EBFN 251455Z AUTO 15005KT 9999 NCD 23/13 Q1013 BLU
cycle: 15

Poznan, Poland (EPPO) 52-25N 016-50E 92M
Sep 25, 2021 - 11:00 AM EDT / 2021.09.25 1500 UTC
Wind: from the W (280 degrees) at 12 MPH (10 KT):0
Visibility: greater than 7 mile(s):0
Sky conditions: partly cloudy
Temperature: 64 F (18 C)
Dew Point: 59 F (15 C)
Relative Humidity: 82%
Pressure (altimeter): 30.00 in. Hg (1016 hPa)
ob: EPPO 251500Z 28010KT 9999 SCT011 18/15 Q1016 
cycle: 15



Coucher du Soleil:
19:36:18

Lever de Lune:
21:10:50 24/09/21

Coucher de Lune:
11:04:46 24/09/21

Premier Quartier 13 septembre 2021
Pleine Lune 20 septembre 2021
Dernier Quartier 29 septembre 2021
Nouvelle Lune 6 octobre 2021
Âge de lune : 18 jours,10 heures,34 minutes,86%
Les heures du jour possible étaient aujourd’hui 12:04